Huvudsida
METAR-TAF:

METAR-TAF

Flygplatser :

Tammerfors-Birkala flygplats

Tammerfors, Finland

latitud: 61-25N, longitud: 023-35E, höjd: 112 m

Aktuellt väderrapport

Denna rapport gjordes för 15 minuter sedan, klockan 19:20 UTC
Vind 2 kt från sydväst
Temperatur 17°C
Fuktighet 72%
Tryck 1017 hPa
Sikt 10 km eller mer
Inga moln under 1 500 m eller inga cumulonimbus

METAR: EFTP 251920Z AUTO 23002KT CAVOK 17/12 Q1017

Tid: 22:35 (19:35 UTC)

Väderprognos

Denna rapport gjordes för 2 timmar och 10 minuter sedan, klockan 17:25 UTC
Prognos gäller från 25 kl. 18 UTC till 26 kl. 18 UTC
Vind 2 kt varierande vindriktning
Sikt 10 km eller mer
Brutna moln på en höjd av 4500 ft
Blir
från 26 kl. 11 UTC till 26 kl. 13 UTC
Vind 10 kt från väst/sydväst

TAF: EFTP 251725Z 2518/2618 VRB02KT 9999 BKN045 BECMG 2611/2613 25010KT

Aktuella väderrapporter och prognoser från 4000 flygplatser (METAR- och TAF-rapporter).

De tillgängliga stationerna syns som gula och röda prickar på kartan.

För musen över prickarna för att se namnen på stationerna.

Klicka sedan för att få väderrapporter och prognoser.

För att ändra kartan: Klicka på de gröna knapparna med ett svart kors på för att zooma in; den gröna knappen med ett streck på för att zooma ut; eller på de gröna pilarna för angränsande kartor.


METAR-TAF: